createdAt,value
2022-11-27T00:02:58.448Z,97940.66
2022-11-27T00:06:00.554Z,97939.59
2022-11-27T00:09:05.483Z,97939.81
2022-11-27T00:12:07.657Z,97937.06
2022-11-27T00:15:13.409Z,97932.88
2022-11-27T00:18:18.025Z,97936.63
2022-11-27T00:21:30.129Z,97944.47
2022-11-27T00:24:32.186Z,97952.09
2022-11-27T00:27:34.237Z,97952.88
2022-11-27T00:30:36.292Z,97960.53
2022-11-27T00:33:38.504Z,97968.50
2022-11-27T00:36:43.945Z,97953.44
2022-11-27T00:39:48.859Z,97947.00
2022-11-27T00:42:50.907Z,97951.84
2022-11-27T00:45:52.926Z,97950.53
2022-11-27T00:48:55.107Z,97940.06
2022-11-27T00:51:57.175Z,97928.25
2022-11-27T00:54:59.234Z,97927.50
2022-11-27T00:58:01.289Z,97930.97
2022-11-27T01:01:07.397Z,97927.97
2022-11-27T01:04:12.789Z,97941.97
2022-11-27T01:07:14.922Z,97946.22
2022-11-27T01:10:17.110Z,97940.72
2022-11-27T01:13:19.336Z,97946.31
2022-11-27T01:16:24.759Z,97941.75
2022-11-27T01:19:26.965Z,97943.81
2022-11-27T01:22:29.003Z,97920.59
2022-11-27T01:25:31.032Z,97937.44
2022-11-27T01:28:33.352Z,97943.16
2022-11-27T01:31:35.558Z,97944.75
2022-11-27T01:34:37.916Z,97935.31
2022-11-27T01:37:40.219Z,97936.91
2022-11-27T01:40:42.249Z,97919.94
2022-11-27T01:44:24.404Z,97926.25
2022-11-27T01:47:34.779Z,97933.47
2022-11-27T01:50:38.117Z,97923.41
2022-11-27T01:53:40.229Z,97911.44
2022-11-27T01:56:42.332Z,97912.03
2022-11-27T01:59:45.485Z,97914.69
2022-11-27T02:02:47.731Z,97930.00
2022-11-27T02:05:49.769Z,97918.59
2022-11-27T02:08:52.223Z,97952.56
2022-11-27T02:12:02.689Z,97922.09
2022-11-27T02:15:33.346Z,97930.59
2022-11-27T02:18:58.952Z,97944.19
2022-11-27T02:22:12.791Z,97952.41
2022-11-27T02:25:57.559Z,97978.16
2022-11-27T02:29:03.828Z,98041.41
2022-11-27T02:32:16.125Z,97992.00
2022-11-27T02:35:20.757Z,97989.28
2022-11-27T02:38:38.345Z,97997.13
2022-11-27T02:41:49.502Z,98007.25
2022-11-27T02:44:58.322Z,97985.53
2022-11-27T02:48:06.118Z,97988.22
2022-11-27T02:51:08.250Z,97981.84
2022-11-27T02:54:14.105Z,97986.72
2022-11-27T02:57:16.196Z,97987.63
2022-11-27T03:00:18.809Z,98013.22
2022-11-27T03:03:26.969Z,98018.09
2022-11-27T03:06:36.988Z,98013.91
2022-11-27T03:09:42.765Z,98023.28
2022-11-27T03:12:46.366Z,98025.78
2022-11-27T03:16:39.158Z,98035.88
2022-11-27T03:20:01.133Z,98058.03
2022-11-27T03:23:03.166Z,98044.44
2022-11-27T03:26:05.402Z,98067.84
2022-11-27T03:29:12.676Z,98063.53
2022-11-27T03:32:14.757Z,98062.81
2022-11-27T03:35:18.838Z,98052.66
2022-11-27T03:38:20.896Z,98069.31
2022-11-27T03:41:41.956Z,98038.78
2022-11-27T03:45:26.789Z,98069.56
2022-11-27T03:48:34.073Z,98065.25
2022-11-27T03:52:13.868Z,98054.00
2022-11-27T03:55:45.198Z,98044.53
2022-11-27T03:59:03.912Z,98056.47
2022-11-27T04:02:06.080Z,98048.81
2022-11-27T04:05:08.919Z,98061.47
2022-11-27T04:08:11.217Z,98063.25
2022-11-27T04:11:14.030Z,98065.13
2022-11-27T04:14:16.085Z,98076.81
2022-11-27T04:17:18.137Z,98094.28
2022-11-27T04:20:20.177Z,98107.69
2022-11-27T04:23:22.247Z,98108.72
2022-11-27T04:26:24.708Z,98113.34
2022-11-27T04:29:26.839Z,98119.44
2022-11-27T04:32:29.005Z,98115.94
2022-11-27T04:35:31.073Z,98123.78
2022-11-27T04:38:33.182Z,98124.75
2022-11-27T04:41:35.405Z,98124.25
2022-11-27T04:44:37.603Z,98126.72
2022-11-27T04:47:39.928Z,98125.84
2022-11-27T04:50:42.037Z,98128.97
2022-11-27T04:53:44.149Z,98134.06
2022-11-27T04:56:46.192Z,98137.72
2022-11-27T04:59:48.249Z,98126.78
2022-11-27T05:02:50.401Z,98130.88
2022-11-27T05:05:57.121Z,98142.78
2022-11-27T05:09:02.279Z,98149.38
2022-11-27T05:12:04.882Z,98162.63
2022-11-27T05:15:08.108Z,98164.34
2022-11-27T05:18:10.221Z,98162.91
2022-11-27T05:21:12.274Z,98171.19
2022-11-27T05:24:14.891Z,98164.75
2022-11-27T05:27:17.005Z,98173.63
2022-11-27T05:30:19.266Z,98168.38
2022-11-27T05:33:21.314Z,98178.78
2022-11-27T05:36:23.461Z,98175.75
2022-11-27T05:39:25.704Z,98155.38
2022-11-27T05:42:27.881Z,98173.91
2022-11-27T05:45:30.331Z,98173.84
2022-11-27T05:48:32.581Z,98179.84
2022-11-27T05:51:34.700Z,98178.34
2022-11-27T05:54:36.797Z,98202.78
2022-11-27T05:57:39.137Z,98190.34
2022-11-27T06:00:41.288Z,98194.28
2022-11-27T06:03:43.394Z,98205.44
2022-11-27T06:06:45.553Z,98202.13
2022-11-27T06:09:47.575Z,98189.94
2022-11-27T06:12:49.681Z,98189.38
2022-11-27T06:15:51.758Z,98203.72
2022-11-27T06:18:55.374Z,98199.94
2022-11-27T06:21:57.440Z,98193.06
2022-11-27T06:24:59.545Z,98195.13
2022-11-27T06:28:01.649Z,98202.44
2022-11-27T06:31:13.125Z,98207.66
2022-11-27T06:34:18.234Z,98208.38
2022-11-27T06:37:20.372Z,98210.38
2022-11-27T06:40:22.439Z,98212.16
2022-11-27T06:43:24.513Z,98211.13
2022-11-27T06:46:27.123Z,98222.75
2022-11-27T06:49:29.203Z,98221.94
2022-11-27T06:52:33.628Z,98250.88
2022-11-27T06:55:39.392Z,98216.00
2022-11-27T06:58:41.482Z,98222.97
2022-11-27T07:01:43.650Z,98216.25
2022-11-27T07:04:45.908Z,98206.16
2022-11-27T07:07:48.018Z,98202.78
2022-11-27T07:10:50.101Z,98208.16
2022-11-27T07:13:52.273Z,98204.69
2022-11-27T07:16:54.479Z,98210.22
2022-11-27T07:19:56.619Z,98202.88
2022-11-27T07:22:58.633Z,98221.72
2022-11-27T07:26:06.376Z,98225.50
2022-11-27T07:29:08.312Z,98227.66
2022-11-27T07:32:10.368Z,98229.69
2022-11-27T07:35:12.471Z,98230.28
2022-11-27T07:38:14.511Z,98231.66
2022-11-27T07:41:16.676Z,98236.78
2022-11-27T07:44:18.764Z,98236.88
2022-11-27T07:47:20.774Z,98243.25
2022-11-27T07:50:22.860Z,98237.00
2022-11-27T07:53:24.911Z,98243.53
2022-11-27T07:56:27.903Z,98247.63
2022-11-27T07:59:29.977Z,98251.88
2022-11-27T08:02:32.059Z,98254.50
2022-11-27T08:05:35.594Z,98246.66
2022-11-27T08:08:37.638Z,98244.97
2022-11-27T08:11:39.772Z,98240.63
2022-11-27T08:14:42.095Z,98234.75
2022-11-27T08:17:44.289Z,98234.16
2022-11-27T08:20:46.389Z,98229.59
2022-11-27T08:23:48.435Z,98233.72
2022-11-27T08:26:52.157Z,98239.72
2022-11-27T08:29:54.289Z,98236.41
2022-11-27T08:32:56.328Z,98242.22
2022-11-27T08:35:58.429Z,98244.84
2022-11-27T08:39:00.493Z,98247.09
2022-11-27T08:42:02.535Z,98251.88
2022-11-27T08:45:05.056Z,98254.09
2022-11-27T08:48:07.334Z,98256.09
2022-11-27T08:51:11.990Z,98255.66
2022-11-27T08:54:14.041Z,98241.09
2022-11-27T08:57:17.149Z,98243.75
2022-11-27T09:00:24.877Z,98254.72
2022-11-27T09:03:29.702Z,98245.75
2022-11-27T09:06:33.520Z,98251.75
2022-11-27T09:09:36.893Z,98259.06
2022-11-27T09:12:43.191Z,98271.72
2022-11-27T09:15:45.656Z,98267.75
2022-11-27T09:18:49.380Z,98278.75
2022-11-27T09:21:51.481Z,98269.91
2022-11-27T09:24:53.534Z,98272.88
2022-11-27T09:27:55.599Z,98267.38
2022-11-27T09:30:58.331Z,98282.97
2022-11-27T09:34:00.453Z,98283.25
2022-11-27T09:37:03.958Z,98285.25
2022-11-27T09:40:07.026Z,98269.91
2022-11-27T09:43:11.201Z,98278.13
2022-11-27T09:46:19.535Z,98275.53
2022-11-27T09:49:29.206Z,98274.00
2022-11-27T09:53:06.636Z,98287.16
2022-11-27T09:56:11.271Z,98279.03
2022-11-27T09:59:17.911Z,98287.03
2022-11-27T10:02:32.028Z,98288.88
2022-11-27T10:05:47.953Z,98286.13
2022-11-27T10:09:12.721Z,98286.72
2022-11-27T10:12:23.484Z,98287.44
2022-11-27T10:15:49.846Z,98287.84
2022-11-27T10:18:58.238Z,98278.19
2022-11-27T10:22:19.616Z,98270.94
2022-11-27T10:25:38.416Z,98270.72
2022-11-27T10:29:10.615Z,98267.72
2022-11-27T10:32:53.091Z,98261.13
2022-11-27T10:35:41.360Z,98253.47
2022-11-27T10:38:43.515Z,98252.97
2022-11-27T10:42:01.811Z,98254.66
2022-11-27T10:45:10.465Z,98245.38
2022-11-27T10:48:13.373Z,98231.31
2022-11-27T10:51:21.582Z,98248.38
2022-11-27T10:54:31.930Z,98239.75
2022-11-27T10:57:48.958Z,98250.47
2022-11-27T11:01:02.488Z,98241.81
2022-11-27T11:04:24.244Z,98236.38
2022-11-27T11:07:29.558Z,98236.38
2022-11-27T11:10:43.944Z,98238.69
2022-11-27T11:13:46.843Z,98235.97
2022-11-27T11:16:49.159Z,98231.00
2022-11-27T11:19:51.365Z,98221.13
2022-11-27T11:22:53.452Z,98208.03
2022-11-27T11:25:59.000Z,98207.84
2022-11-27T11:29:06.313Z,98202.72
2022-11-27T11:32:13.948Z,98204.69
2022-11-27T11:35:32.841Z,98192.81
2022-11-27T11:38:34.890Z,98187.34
2022-11-27T11:41:40.147Z,98183.84
2022-11-27T11:44:42.450Z,98192.50
2022-11-27T11:48:21.816Z,98187.06
2022-11-27T11:51:38.096Z,98195.94
2022-11-27T11:55:17.517Z,98195.72
2022-11-27T11:58:54.610Z,98195.22
2022-11-27T12:02:25.600Z,98203.72
2022-11-27T12:05:50.284Z,98210.66
2022-11-27T12:09:10.476Z,98212.41
2022-11-27T12:12:50.022Z,98218.88
2022-11-27T12:16:23.080Z,98215.63
2022-11-27T12:20:00.190Z,98202.97
2022-11-27T12:23:28.560Z,98209.25
2022-11-27T12:26:55.951Z,98199.44
2022-11-27T12:30:17.888Z,98196.78
2022-11-27T12:34:00.429Z,98209.34
2022-11-27T12:37:14.442Z,98197.75
2022-11-27T12:40:30.241Z,98196.31
2022-11-27T12:43:47.856Z,98187.34
2022-11-27T12:47:24.902Z,98190.97
2022-11-27T12:51:03.684Z,98197.69
2022-11-27T12:54:16.533Z,98182.53
2022-11-27T12:57:34.363Z,98189.50
2022-11-27T13:00:39.503Z,98191.97
2022-11-27T13:04:15.481Z,98197.97
2022-11-27T13:07:24.121Z,98200.53
2022-11-27T13:10:33.984Z,98186.00
2022-11-27T13:13:40.867Z,98184.06
2022-11-27T13:16:46.794Z,98178.59
2022-11-27T13:19:50.185Z,98180.72
2022-11-27T13:22:52.237Z,98179.91
2022-11-27T13:25:55.073Z,98178.22
2022-11-27T13:29:48.350Z,98171.00
2022-11-27T13:32:56.377Z,98163.53
2022-11-27T13:35:58.440Z,98154.13
2022-11-27T13:39:01.473Z,98145.94
2022-11-27T13:42:13.001Z,98150.34
2022-11-27T13:45:34.101Z,98145.41
2022-11-27T13:48:42.158Z,98143.06
2022-11-27T13:51:44.212Z,98138.59
2022-11-27T13:55:05.470Z,98139.28
2022-11-27T13:58:08.224Z,98135.53
2022-11-27T14:01:24.252Z,98127.63
2022-11-27T14:04:27.869Z,98122.91
2022-11-27T14:07:38.053Z,98111.31
2022-11-27T14:10:58.840Z,98103.59
2022-11-27T14:14:01.294Z,98107.47
2022-11-27T14:17:09.073Z,98105.63
2022-11-27T14:20:11.465Z,98106.97
2022-11-27T14:23:14.050Z,98117.66
2022-11-27T14:26:16.134Z,98111.75
2022-11-27T14:29:20.951Z,98102.19
2022-11-27T14:32:23.083Z,98097.16
2022-11-27T14:35:26.972Z,98103.56
2022-11-27T14:38:30.200Z,98090.50
2022-11-27T14:41:32.366Z,98085.75
2022-11-27T14:44:34.880Z,98084.22
2022-11-27T14:47:37.061Z,98073.75
2022-11-27T14:50:39.170Z,98072.91
2022-11-27T14:53:41.202Z,98068.13
2022-11-27T14:56:43.913Z,98070.22
2022-11-27T14:59:46.003Z,98060.22
2022-11-27T15:02:51.563Z,98070.00
2022-11-27T15:06:05.666Z,98069.22
2022-11-27T15:09:31.312Z,98070.56
2022-11-27T15:12:42.520Z,98073.03
2022-11-27T15:15:44.680Z,98072.81
2022-11-27T15:19:01.998Z,98062.00
2022-11-27T15:22:04.213Z,98065.78
2022-11-27T15:25:07.679Z,98059.09
2022-11-27T15:28:34.256Z,98063.63
2022-11-27T15:31:37.766Z,98059.66
2022-11-27T15:34:40.454Z,98057.72
2022-11-27T15:37:42.768Z,98055.34
2022-11-27T15:40:44.834Z,98056.59
2022-11-27T15:43:46.921Z,98058.63
2022-11-27T15:46:50.307Z,98068.56
2022-11-27T15:49:52.434Z,98062.03
2022-11-27T15:52:54.599Z,98054.59
2022-11-27T15:55:58.265Z,98052.81
2022-11-27T15:59:00.466Z,98048.47
2022-11-27T16:02:02.775Z,98049.34
2022-11-27T16:05:08.805Z,98045.97
2022-11-27T16:08:10.935Z,98038.84
2022-11-27T16:11:14.329Z,98043.66
2022-11-27T16:14:16.443Z,98026.56
2022-11-27T16:17:18.648Z,98022.88
2022-11-27T16:20:20.893Z,98022.06
2022-11-27T16:23:23.023Z,98010.16
2022-11-27T16:26:25.190Z,98004.66
2022-11-27T16:29:27.396Z,98008.53
2022-11-27T16:32:29.579Z,98001.91
2022-11-27T16:35:31.919Z,98002.50
2022-11-27T16:38:34.216Z,97993.22
2022-11-27T16:41:36.997Z,97998.88
2022-11-27T16:44:39.896Z,97994.59
2022-11-27T16:47:42.133Z,97985.72
2022-11-27T16:50:44.244Z,97988.44
2022-11-27T16:53:49.158Z,97987.13
2022-11-27T16:56:51.774Z,97984.41
2022-11-27T16:59:53.890Z,97983.19
2022-11-27T17:02:56.054Z,97978.28
2022-11-27T17:05:58.680Z,97987.81
2022-11-27T17:09:02.005Z,97981.25
2022-11-27T17:15:08.597Z,97986.47
2022-11-27T17:18:10.907Z,97980.91
2022-11-27T17:21:21.161Z,97973.09
2022-11-27T17:24:25.766Z,97977.38
2022-11-27T17:27:28.504Z,97986.47
2022-11-27T17:30:33.947Z,97980.09
2022-11-27T17:33:40.024Z,97973.41
2022-11-27T17:36:44.886Z,97972.22
2022-11-27T17:39:48.365Z,97969.13
2022-11-27T17:42:50.386Z,97958.91
2022-11-27T17:45:53.115Z,97957.31
2022-11-27T17:48:59.034Z,97957.66
2022-11-27T17:52:06.158Z,97956.66
2022-11-27T17:55:08.762Z,97948.94
2022-11-27T17:58:10.831Z,97942.97
2022-11-27T18:01:22.072Z,97946.72
2022-11-27T18:04:25.655Z,97945.06
2022-11-27T18:07:28.862Z,97941.19
2022-11-27T18:10:32.865Z,97939.69
2022-11-27T18:13:34.959Z,97939.44
2022-11-27T18:16:38.519Z,97932.59
2022-11-27T18:19:41.061Z,97938.78
2022-11-27T18:22:43.388Z,97934.88
2022-11-27T18:25:48.971Z,97941.78
2022-11-27T18:28:55.418Z,97939.16
2022-11-27T18:31:57.502Z,97928.19
2022-11-27T18:34:59.567Z,97920.94
2022-11-27T18:38:01.603Z,97915.78
2022-11-27T18:41:07.462Z,97916.25
2022-11-27T18:44:10.475Z,97917.03
2022-11-27T18:47:14.673Z,97922.09
2022-11-27T18:50:18.255Z,97917.59
2022-11-27T18:53:20.285Z,97925.59
2022-11-27T18:56:27.298Z,97916.69
2022-11-27T18:59:29.359Z,97920.28
2022-11-27T19:02:31.472Z,97913.97
2022-11-27T19:05:36.424Z,97907.72
2022-11-27T19:08:38.601Z,97913.56
2022-11-27T19:11:41.440Z,97898.22
2022-11-27T19:14:44.030Z,97893.63
2022-11-27T19:17:46.345Z,97896.66
2022-11-27T19:20:48.470Z,97902.25
2022-11-27T19:23:51.668Z,97893.69
2022-11-27T19:26:53.769Z,97893.69
2022-11-27T19:29:55.929Z,97887.41
2022-11-27T19:32:58.146Z,97891.97
2022-11-27T19:36:13.584Z,97888.47
2022-11-27T19:39:15.809Z,97886.28
2022-11-27T19:42:18.154Z,97879.47
2022-11-27T19:45:21.527Z,97888.31
2022-11-27T19:48:23.957Z,97882.28
2022-11-27T19:51:26.500Z,97883.44
2022-11-27T19:54:28.600Z,97893.09
2022-11-27T19:57:31.780Z,97890.91
2022-11-27T20:00:33.836Z,97883.22
2022-11-27T20:03:36.044Z,97870.19
2022-11-27T20:06:38.479Z,97873.81
2022-11-27T20:09:40.531Z,97868.66
2022-11-27T20:12:42.713Z,97861.44
2022-11-27T20:15:44.836Z,97863.06
2022-11-27T20:18:47.105Z,97867.06
2022-11-27T20:21:49.274Z,97862.41
2022-11-27T20:25:17.695Z,97865.66
2022-11-27T20:28:15.294Z,97855.81
2022-11-27T20:34:33.992Z,97865.22
2022-11-27T20:37:36.117Z,97860.50
2022-11-27T20:40:39.440Z,97860.81
2022-11-27T20:43:42.969Z,97851.31
2022-11-27T20:46:45.097Z,97841.91
2022-11-27T20:49:48.093Z,97841.47
2022-11-27T20:52:50.197Z,97839.69
2022-11-27T20:55:53.702Z,97841.66
2022-11-27T20:58:56.205Z,97845.50
2022-11-27T21:01:58.316Z,97865.13
2022-11-27T21:05:00.677Z,97871.47
2022-11-27T21:08:02.840Z,97868.00
2022-11-27T21:11:17.210Z,97867.09
2022-11-27T21:14:19.728Z,97866.44
2022-11-27T21:17:21.771Z,97858.69
2022-11-27T21:20:23.821Z,97860.38
2022-11-27T21:23:25.841Z,97865.56
2022-11-27T21:26:28.540Z,97861.72
2022-11-27T21:29:31.728Z,97861.06
2022-11-27T21:32:33.746Z,97853.72
2022-11-27T21:35:40.207Z,97850.63
2022-11-27T21:38:43.019Z,97854.13
2022-11-27T21:41:45.124Z,97845.81
2022-11-27T21:44:47.844Z,97828.94
2022-11-27T21:47:49.959Z,97836.38
2022-11-27T21:50:51.984Z,97832.34
2022-11-27T21:53:55.546Z,97838.81
2022-11-27T21:56:57.607Z,97844.00
2022-11-27T21:59:59.683Z,97838.72
2022-11-27T22:03:01.750Z,97835.94
2022-11-27T22:06:09.905Z,97840.59
2022-11-27T22:09:15.389Z,97825.75
2022-11-27T22:12:18.223Z,97828.91
2022-11-27T22:15:20.255Z,97814.75
2022-11-27T22:18:23.110Z,97802.44
2022-11-27T22:21:25.364Z,97799.31
2022-11-27T22:24:27.677Z,97799.44
2022-11-27T22:27:29.718Z,97801.56
2022-11-27T22:30:31.988Z,97797.03
2022-11-27T22:33:36.955Z,97792.53
2022-11-27T22:36:39.065Z,97775.69
2022-11-27T22:39:43.450Z,97773.91
2022-11-27T22:42:45.586Z,97782.84
2022-11-27T22:45:48.316Z,97787.47
2022-11-27T22:49:00.725Z,97786.09
2022-11-27T22:52:03.171Z,97785.50
2022-11-27T22:55:06.137Z,97773.56
2022-11-27T22:58:08.320Z,97772.28
2022-11-27T23:01:21.252Z,97777.09
2022-11-27T23:04:23.391Z,97777.81
2022-11-27T23:07:25.786Z,97771.69
2022-11-27T23:10:28.074Z,97772.03
2022-11-27T23:13:30.093Z,97767.50
2022-11-27T23:16:32.351Z,97756.69
2022-11-27T23:19:34.411Z,97744.31
2022-11-27T23:22:36.668Z,97734.41
2022-11-27T23:25:38.853Z,97736.34
2022-11-27T23:28:41.003Z,97747.19
2022-11-27T23:31:43.213Z,97741.94
2022-11-27T23:34:45.281Z,97746.75
2022-11-27T23:37:47.376Z,97761.09
2022-11-27T23:40:49.389Z,97751.50
2022-11-27T23:43:52.589Z,97740.50
2022-11-27T23:46:54.864Z,97753.09
2022-11-27T23:49:56.952Z,97748.72
2022-11-27T23:52:59.013Z,97754.13
2022-11-27T23:56:03.269Z,97749.38
2022-11-27T23:59:05.516Z,97761.63
